Time;durP1;ratioP1;P1;durP2;ratioP2;P2;SDS_P1;SDS_P2;PMS_P1;PMS_P2;Temp;Humidity;BMP_temperature;BMP_pressure;BME280_temperature;BME280_humidity;BME280_pressure;Samples;Min_cycle;Max_cycle;Signal;HPM_P1;HPM_P2
2020/12/08 00:01:21;;;;;;;29.67;12.73;;;8.80;87.10;;;;;;5033524;28;20037;-50
2020/12/08 00:03:47;;;;;;;34.08;14.20;;;8.80;87.10;;;;;;5035129;28;20037;-50
2020/12/08 00:06:15;;;;;;;30.52;12.48;;;8.80;87.10;;;;;;5034928;28;20025;-50
2020/12/08 00:08:41;;;;;;;28.70;12.80;;;8.80;87.10;;;;;;5035648;28;20112;-49
2020/12/08 00:11:11;;;;;;;31.25;14.02;;;8.80;87.10;;;;;;5017111;28;20520;-49
2020/12/08 00:13:37;;;;;;;31.70;12.20;;;8.80;87.20;;;;;;5015798;28;20026;-49
2020/12/08 00:16:05;;;;;;;36.03;14.80;;;8.80;87.40;;;;;;5015795;28;20344;-49
2020/12/08 00:18:32;;;;;;;34.67;15.10;;;8.80;87.90;;;;;;5015376;28;20121;-49
2020/12/08 00:20:57;;;;;;;36.80;14.30;;;8.80;87.20;;;;;;5029916;28;20035;-49
2020/12/08 00:23:23;;;;;;;35.40;12.90;;;8.80;87.20;;;;;;5035420;28;20097;-49
2020/12/08 00:25:48;;;;;;;35.65;13.63;;;8.80;87.30;;;;;;5029242;28;20064;-50
2020/12/08 00:28:14;;;;;;;31.88;14.20;;;8.80;87.30;;;;;;5015369;28;20447;-49
2020/12/08 00:30:40;;;;;;;34.53;15.00;;;8.80;87.20;;;;;;5024464;28;20030;-49
2020/12/08 00:33:05;;;;;;;36.67;14.07;;;8.80;87.20;;;;;;5034776;28;20509;-50
2020/12/08 00:35:31;;;;;;;30.30;12.57;;;8.80;87.30;;;;;;5020258;28;20500;-49
2020/12/08 00:37:56;;;;;;;32.40;13.93;;;8.80;87.30;;;;;;5034416;28;20029;-49
2020/12/08 00:40:22;;;;;;;34.17;13.40;;;8.80;87.20;;;;;;5029638;28;20040;-50
2020/12/08 00:42:48;;;;;;;38.92;13.75;;;8.80;87.30;;;;;;5015179;28;20021;-50
2020/12/08 00:45:14;;;;;;;32.10;12.85;;;8.80;87.20;;;;;;5015317;28;20034;-50
2020/12/08 00:47:40;;;;;;;27.58;11.95;;;8.80;87.30;;;;;;5030638;28;20496;-50
2020/12/08 00:50:06;;;;;;;29.52;12.73;;;8.80;87.30;;;;;;5034208;28;20042;-50
2020/12/08 00:52:32;;;;;;;32.70;14.18;;;8.80;87.30;;;;;;5034564;28;20055;-50
2020/12/08 00:54:58;;;;;;;31.08;13.85;;;8.80;87.30;;;;;;5034968;28;20044;-50
2020/12/08 00:57:23;;;;;;;29.90;11.63;;;8.80;87.30;;;;;;5016227;28;20061;-50
2020/12/08 00:59:49;;;;;;;29.63;13.05;;;8.80;87.40;;;;;;5023418;28;20097;-49
2020/12/08 01:02:18;;;;;;;34.40;13.27;;;8.80;87.40;;;;;;5028075;28;20194;-50
2020/12/08 01:04:45;;;;;;;33.30;13.73;;;8.80;87.50;;;;;;5028373;28;20212;-50
2020/12/08 01:07:11;;;;;;;30.30;12.68;;;8.80;87.40;;;;;;5020676;28;20451;-50
2020/12/08 01:09:37;;;;;;;30.92;13.27;;;8.80;87.40;;;;;;5014763;28;20145;-50
2020/12/08 01:12:03;;;;;;;31.27;12.88;;;8.80;87.30;;;;;;5018164;28;20044;-49
2020/12/08 01:14:28;;;;;;;28.02;11.93;;;8.80;87.30;;;;;;5014648;28;20324;-49
2020/12/08 03:58:27;;;;;;;28.25;11.77;;;8.80;87.90;;;;;;5018124;28;20227;-50
2020/12/08 04:00:52;;;;;;;22.70;10.25;;;8.80;87.80;;;;;;5025574;28;20135;-50
2020/12/08 04:03:18;;;;;;;20.23;9.32;;;8.90;87.80;;;;;;5026445;28;20032;-50
2020/12/08 04:05:43;;;;;;;25.10;10.65;;;8.90;87.80;;;;;;5015879;28;20525;-50
2020/12/08 04:08:09;;;;;;;22.42;9.93;;;8.80;87.70;;;;;;5028983;28;20029;-50
2020/12/08 04:10:34;;;;;;;23.98;10.02;;;8.80;87.80;;;;;;5014971;28;20037;-50
2020/12/08 04:13:00;;;;;;;22.67;10.07;;;8.80;87.90;;;;;;5033911;28;20359;-50
2020/12/08 04:15:26;;;;;;;22.25;9.57;;;8.80;87.80;;;;;;5030969;28;20092;-50
2020/12/08 04:17:51;;;;;;;22.70;10.40;;;8.80;87.80;;;;;;5015607;28;20109;-50
2020/12/08 04:20:17;;;;;;;24.08;10.10;;;8.80;87.90;;;;;;5015189;28;20362;-50
2020/12/08 04:22:42;;;;;;;22.00;9.13;;;8.80;88.00;;;;;;5015499;28;20041;-50
2020/12/08 04:25:08;;;;;;;26.25;11.25;;;8.80;87.90;;;;;;5015084;28;20030;-50
2020/12/08 04:27:34;;;;;;;20.05;10.27;;;8.80;87.80;;;;;;5015464;28;20014;-50
2020/12/08 04:29:59;;;;;;;27.10;11.43;;;8.80;87.90;;;;;;5031472;28;20042;-50
2020/12/08 04:32:25;;;;;;;23.10;9.63;;;8.80;88.00;;;;;;5029402;28;20018;-50
2020/12/08 04:34:50;;;;;;;23.35;10.60;;;8.80;87.80;;;;;;5014987;28;20478;-50
2020/12/08 04:37:16;;;;;;;21.85;9.65;;;8.80;88.00;;;;;;5034500;28;20041;-50
2020/12/08 04:39:41;;;;;;;25.70;11.00;;;8.80;87.80;;;;;;5020137;28;20041;-50
2020/12/08 04:42:07;;;;;;;25.67;10.73;;;8.80;88.00;;;;;;5015148;28;20120;-50
2020/12/08 04:44:34;;;;;;;22.92;9.73;;;8.80;88.00;;;;;;5015149;28;20026;-50
2020/12/08 04:47:04;;;;;;;23.77;10.80;;;8.80;88.10;;;;;;5015105;28;20034;-50
2020/12/08 04:49:30;;;;;;;23.85;10.10;;;8.80;88.00;;;;;;5015300;28;20471;-50
2020/12/08 04:51:55;;;;;;;21.00;9.88;;;8.80;88.10;;;;;;5015158;28;20123;-50
2020/12/08 04:54:21;;;;;;;24.85;10.48;;;8.80;88.00;;;;;;5014623;28;20032;-50
2020/12/08 04:56:50;;;;;;;21.67;10.05;;;8.80;88.00;;;;;;5014809;28;20032;-50
2020/12/08 04:59:23;;;;;;;24.23;11.38;;;8.80;87.90;;;;;;5023762;28;20040;-50
2020/12/08 05:01:49;;;;;;;25.17;11.02;;;8.80;87.90;;;;;;5014644;28;20398;-50
2020/12/08 05:04:24;;;;;;;22.42;9.77;;;8.80;87.90;;;;;;5014825;28;20040;-50
2020/12/08 05:07:07;;;;;;;22.80;8.45;;;8.80;88.00;;;;;;5019778;28;20422;-50
2020/12/08 05:09:46;;;;;;;21.10;10.38;;;8.80;88.10;;;;;;5033959;28;20041;-50
2020/12/08 05:12:18;;;;;;;25.77;11.50;;;8.80;88.70;;;;;;5018196;28;20474;-50
2020/12/08 05:14:43;;;;;;;24.38;11.15;;;8.80;88.10;;;;;;5014542;28;20041;-50
2020/12/08 05:17:09;;;;;;;24.70;10.70;;;8.80;88.00;;;;;;5014699;28;20037;-50
2020/12/08 05:19:35;;;;;;;22.40;11.45;;;8.80;88.00;;;;;;5016950;28;20022;-50
2020/12/08 05:22:00;;;;;;;23.15;9.70;;;8.80;88.00;;;;;;5034435;28;20030;-50
2020/12/08 05:24:31;;;;;;;21.80;10.40;;;8.80;88.10;;;;;;5033837;28;20521;-50
2020/12/08 05:27:01;;;;;;;23.95;11.07;;;8.80;87.90;;;;;;5033963;28;20038;-50
2020/12/08 05:29:35;;;;;;;26.58;11.82;;;8.80;88.00;;;;;;5014931;28;20046;-50
2020/12/08 05:32:24;;;;;;;29.90;11.15;;;8.80;87.90;;;;;;5018020;28;20060;-50
2020/12/08 05:34:54;;;;;;;19.27;9.82;;;8.80;87.90;;;;;;5033060;28;20517;-50
2020/12/08 05:37:20;;;;;;;22.27;10.68;;;8.80;88.00;;;;;;5033666;28;20040;-50
2020/12/08 05:39:47;;;;;;;22.67;11.05;;;8.80;88.20;;;;;;5027576;28;20036;-51
2020/12/08 05:42:18;;;;;;;21.80;10.52;;;8.80;88.00;;;;;;5013763;28;20030;-50
2020/12/08 05:44:47;;;;;;;23.77;11.00;;;8.80;88.20;;;;;;5017705;28;20052;-50
2020/12/08 05:47:20;;;;;;;23.17;10.88;;;8.80;88.30;;;;;;5018559;28;20032;-50
2020/12/08 05:49:59;;;;;;;23.60;10.25;;;8.80;88.00;;;;;;5021163;28;20040;-50
2020/12/08 05:52:28;;;;;;;20.85;9.50;;;8.80;88.20;;;;;;5037762;28;20117;-50
2020/12/08 05:55:05;;;;;;;21.77;9.60;;;8.80;88.30;;;;;;5028334;28;20092;-50
2020/12/08 05:57:31;;;;;;;21.25;10.48;;;8.80;88.30;;;;;;5018611;28;20030;-50
2020/12/08 05:59:57;;;;;;;23.58;10.55;;;8.80;88.00;;;;;;5021199;28;20033;-50
2020/12/08 06:02:30;;;;;;;27.00;10.52;;;8.80;88.00;;;;;;5037326;28;20079;-50
2020/12/08 06:04:59;;;;;;;29.23;10.45;;;8.80;88.10;;;;;;5037845;28;20021;-50
2020/12/08 06:07:30;;;;;;;19.52;9.85;;;8.80;88.10;;;;;;5027251;28;20059;-50
2020/12/08 06:10:10;;;;;;;26.40;10.18;;;8.80;88.10;;;;;;5020927;28;20042;-50
2020/12/08 06:12:39;;;;;;;24.27;9.73;;;8.90;88.20;;;;;;5037774;28;20037;-50
2020/12/08 06:15:22;;;;;;;19.73;10.85;;;8.80;88.20;;;;;;5027876;28;20366;-50
2020/12/08 06:17:48;;;;;;;22.25;10.30;;;8.80;88.20;;;;;;5017735;28;20439;-50
2020/12/08 06:20:14;;;;;;;23.90;10.65;;;8.80;88.20;;;;;;5017670;28;20379;-50
2020/12/08 06:22:40;;;;;;;24.65;9.93;;;8.80;88.20;;;;;;5017769;28;20451;-50
2020/12/08 06:25:05;;;;;;;29.10;11.90;;;8.90;88.50;;;;;;5027056;28;20033;-50
2020/12/08 06:27:32;;;;;;;20.67;9.27;;;8.80;88.10;;;;;;5037481;28;20470;-50
2020/12/08 06:29:58;;;;;;;22.13;9.00;;;8.80;88.20;;;;;;5036881;28;20033;-50
2020/12/08 06:32:28;;;;;;;23.50;10.30;;;8.90;88.60;;;;;;5037455;28;20025;-51
2020/12/08 06:35:07;;;;;;;23.77;10.82;;;8.80;88.20;;;;;;5032383;28;20053;-50
2020/12/08 06:37:33;;;;;;;26.15;11.05;;;8.80;88.30;;;;;;5026050;28;20022;-50
2020/12/08 06:40:10;;;;;;;24.73;10.32;;;8.80;88.20;;;;;;5024547;28;20100;-50
2020/12/08 06:42:36;;;;;;;22.60;10.07;;;8.80;88.20;;;;;;5017361;28;20156;-50
2020/12/08 06:45:06;;;;;;;26.63;11.98;;;8.80;88.30;;;;;;5017595;28;20030;-50
2020/12/08 06:47:32;;;;;;;26.10;11.63;;;8.80;88.20;;;;;;5028190;28;20033;-50
2020/12/08 06:49:58;;;;;;;27.23;12.35;;;8.80;88.20;;;;;;5037340;28;20033;-50
2020/12/08 06:52:23;;;;;;;28.73;12.25;;;8.80;88.30;;;;;;5034713;28;20367;-50
2020/12/08 06:55:00;;;;;;;27.40;11.13;;;8.80;88.20;;;;;;5035128;28;20037;-50
2020/12/08 06:57:25;;;;;;;27.05;11.45;;;8.80;88.20;;;;;;5036572;28;20037;-50
2020/12/08 07:00:10;;;;;;;25.75;11.23;;;8.80;88.30;;;;;;5036821;28;20358;-50
2020/12/08 07:02:48;;;;;;;24.98;10.50;;;8.80;88.20;;;;;;5036643;28;20113;-50
2020/12/08 07:05:19;;;;;;;24.58;10.43;;;8.80;88.20;;;;;;5027255;28;20037;-50
2020/12/08 07:07:46;;;;;;;23.77;9.63;;;8.80;88.20;;;;;;5022708;28;20456;-50
2020/12/08 07:10:14;;;;;;;22.92;10.93;;;8.80;88.30;;;;;;5017066;28;20084;-50
2020/12/08 07:12:44;;;;;;;23.75;10.15;;;8.80;88.30;;;;;;5036549;28;20056;-50
2020/12/08 07:15:18;;;;;;;25.65;11.23;;;8.80;88.20;;;;;;5027990;28;20042;-51
2020/12/08 07:17:52;;;;;;;25.88;10.20;;;8.80;88.20;;;;;;5027394;28;20482;-51
2020/12/08 07:20:17;;;;;;;22.10;10.00;;;8.80;88.50;;;;;;5035927;28;20344;-51
2020/12/08 07:22:47;;;;;;;20.27;10.27;;;8.80;88.50;;;;;;5036249;28;20033;-50
2020/12/08 07:25:17;;;;;;;22.35;9.75;;;8.80;88.20;;;;;;5035364;28;20471;-50
2020/12/08 07:27:48;;;;;;;25.77;10.23;;;8.70;87.70;;;;;;5036376;28;20056;-50
2020/12/08 07:30:16;;;;;;;25.77;11.57;;;8.80;87.60;;;;;;5034163;28;20029;-50
2020/12/08 07:32:42;;;;;;;25.77;10.13;;;8.80;87.90;;;;;;5035659;28;20021;-50
2020/12/08 07:35:18;;;;;;;23.90;9.32;;;8.80;87.90;;;;;;5028354;28;20092;-50
2020/12/08 07:37:44;;;;;;;28.35;10.52;;;8.80;87.60;;;;;;5016361;28;20022;-51
2020/12/08 07:40:11;;;;;;;24.35;10.55;;;8.80;87.60;;;;;;5016791;28;20455;-50
2020/12/08 07:42:38;;;;;;;25.10;10.35;;;8.80;87.90;;;;;;5016010;28;20029;-50
2020/12/08 07:45:08;;;;;;;23.33;9.40;;;8.80;87.90;;;;;;5016445;28;20336;-50
2020/12/08 07:47:35;;;;;;;24.00;10.02;;;8.80;87.90;;;;;;5031408;28;20033;-50
2020/12/08 07:50:01;;;;;;;27.38;11.02;;;8.80;87.80;;;;;;5019672;28;20026;-50
2020/12/08 07:52:26;;;;;;;27.83;10.93;;;8.80;87.80;;;;;;5015791;28;20041;-50
2020/12/08 07:54:52;;;;;;;25.42;10.63;;;8.80;87.60;;;;;;5027556;28;20022;-50
2020/12/08 07:57:17;;;;;;;26.23;11.20;;;8.80;88.00;;;;;;5016011;28;20045;-50
2020/12/08 07:59:43;;;;;;;26.67;11.32;;;8.90;88.10;;;;;;5022695;28;20052;-50
2020/12/08 08:02:09;;;;;;;21.80;10.40;;;8.80;88.00;;;;;;5035463;28;20438;-50
2020/12/08 08:04:34;;;;;;;20.77;10.07;;;8.80;88.00;;;;;;5033120;28;20038;-50
2020/12/08 08:07:00;;;;;;;23.77;10.40;;;8.80;88.10;;;;;;5015611;28;20447;-50
2020/12/08 08:09:26;;;;;;;24.77;9.77;;;8.90;87.90;;;;;;5015841;28;20025;-50
2020/12/08 08:11:51;;;;;;;19.98;9.20;;;8.90;88.10;;;;;;5015500;28;20387;-50
2020/12/08 08:14:17;;;;;;;25.00;9.68;;;8.90;88.00;;;;;;5015426;28;20026;-50
2020/12/08 08:16:43;;;;;;;25.00;9.93;;;8.90;88.20;;;;;;5035122;28;20386;-50
2020/12/08 08:19:09;;;;;;;26.73;10.38;;;8.90;88.20;;;;;;5035761;28;20109;-51
2020/12/08 08:21:34;;;;;;;26.77;10.15;;;8.80;87.80;;;;;;5035028;28;20029;-50
2020/12/08 08:24:00;;;;;;;24.17;10.70;;;8.80;87.90;;;;;;5035241;28;20030;-51
2020/12/08 08:26:27;;;;;;;19.88;9.77;;;8.80;87.70;;;;;;5017953;28;20092;-51
2020/12/08 08:28:53;;;;;;;21.45;10.05;;;8.80;87.90;;;;;;5015251;28;20037;-51
2020/12/08 08:31:19;;;;;;;24.75;9.65;;;8.90;88.30;;;;;;5032994;28;20030;-50
2020/12/08 08:33:45;;;;;;;25.75;10.48;;;8.90;88.00;;;;;;5024168;28;20474;-51
2020/12/08 08:36:11;;;;;;;20.85;9.32;;;8.80;88.20;;;;;;5015677;28;20045;-50
2020/12/08 08:38:37;;;;;;;22.45;8.35;;;8.90;88.50;;;;;;5015197;28;20034;-51
2020/12/08 08:41:03;;;;;;;20.63;8.82;;;8.90;88.10;;;;;;5014964;28;20034;-51
2020/12/08 08:43:29;;;;;;;20.13;8.13;;;8.90;88.50;;;;;;5014862;28;20022;-50
2020/12/08 08:45:56;;;;;;;28.13;9.52;;;8.90;88.10;;;;;;5015360;28;20092;-51
2020/12/08 08:48:22;;;;;;;25.02;9.85;;;8.90;88.40;;;;;;5015444;28;20022;-50
2020/12/08 08:50:49;;;;;;;25.23;10.27;;;8.90;88.20;;;;;;5014964;28;20105;-51
2020/12/08 08:53:15;;;;;;;25.25;11.15;;;8.90;87.90;;;;;;5030219;28;20033;-50
2020/12/08 08:55:41;;;;;;;24.80;9.70;;;8.90;88.20;;;;;;5034782;28;20045;-51
2020/12/08 08:58:07;;;;;;;18.88;8.85;;;8.90;88.30;;;;;;5034451;28;20021;-50
2020/12/08 09:00:32;;;;;;;23.02;9.80;;;8.90;88.30;;;;;;5034110;28;20048;-50
2020/12/08 09:02:59;;;;;;;18.73;9.15;;;8.90;88.50;;;;;;5015405;28;20026;-50
2020/12/08 09:05:25;;;;;;;19.90;9.07;;;8.90;88.20;;;;;;5015073;28;20434;-50
2020/12/08 09:07:51;;;;;;;21.73;9.07;;;8.90;88.40;;;;;;5017201;28;20165;-50
2020/12/08 09:10:17;;;;;;;19.52;8.43;;;8.90;88.20;;;;;;5014845;28;20328;-51
2020/12/08 09:12:43;;;;;;;20.70;8.77;;;8.90;88.20;;;;;;5014615;28;20156;-51
2020/12/08 09:15:09;;;;;;;18.52;7.78;;;8.90;88.30;;;;;;5014789;28;20034;-50
2020/12/08 09:17:35;;;;;;;21.73;9.57;;;8.90;88.20;;;;;;5015251;28;20030;-50
2020/12/08 09:20:01;;;;;;;20.13;8.48;;;8.90;88.50;;;;;;5014855;28;20026;-50
2020/12/08 09:22:27;;;;;;;19.42;7.90;;;8.90;88.30;;;;;;5014512;28;20073;-51
2020/12/08 09:24:53;;;;;;;22.38;9.35;;;8.90;88.60;;;;;;5014676;28;20451;-50
2020/12/08 09:27:18;;;;;;;21.38;9.60;;;8.90;88.50;;;;;;5014580;28;20049;-51
2020/12/08 09:29:44;;;;;;;24.67;9.75;;;8.90;88.30;;;;;;5022442;28;20018;-51
2020/12/08 09:32:10;;;;;;;22.65;9.80;;;8.90;88.30;;;;;;5031140;28;20156;-51
2020/12/08 09:34:36;;;;;;;17.80;8.65;;;8.90;88.70;;;;;;5014562;28;20025;-50
2020/12/08 09:37:04;;;;;;;23.25;9.10;;;8.90;88.20;;;;;;5014613;28;20088;-51
2020/12/08 09:39:30;;;;;;;21.35;8.25;;;8.90;88.50;;;;;;5014550;28;20057;-51
2020/12/08 09:41:56;;;;;;;25.02;9.55;;;8.90;88.80;;;;;;5014426;28;20099;-50
2020/12/08 09:44:24;;;;;;;24.42;8.93;;;8.90;88.40;;;;;;5014425;28;20062;-50
2020/12/08 09:46:50;;;;;;;22.95;9.10;;;8.90;88.40;;;;;;5028976;28;20029;-51
2020/12/08 09:49:16;;;;;;;18.52;8.70;;;8.90;88.40;;;;;;5034266;28;20030;-50
2020/12/08 09:51:42;;;;;;;25.05;9.60;;;8.90;88.40;;;;;;5033793;28;20033;-50
2020/12/08 09:54:08;;;;;;;22.52;8.48;;;9.00;88.60;;;;;;5033986;28;20112;-51
2020/12/08 09:56:33;;;;;;;18.83;8.27;;;9.00;88.50;;;;;;5034255;28;20433;-50
2020/12/08 09:58:59;;;;;;;20.65;8.30;;;8.90;88.50;;;;;;5017024;28;20034;-50
2020/12/08 10:01:27;;;;;;;21.20;9.05;;;8.90;88.50;;;;;;5033037;28;20049;-50
2020/12/08 10:03:53;;;;;;;19.15;8.27;;;9.00;88.40;;;;;;5034109;28;20032;-50
2020/12/08 10:06:19;;;;;;;18.02;8.30;;;8.90;88.60;;;;;;5033133;28;20026;-50
2020/12/08 10:08:45;;;;;;;18.65;7.97;;;8.90;88.60;;;;;;5014146;28;20101;-50
2020/12/08 10:11:13;;;;;;;17.70;9.43;;;9.00;88.70;;;;;;5013966;28;20030;-50
2020/12/08 10:13:39;;;;;;;23.60;9.45;;;9.00;88.60;;;;;;5014255;28;20076;-51
2020/12/08 10:16:05;;;;;;;19.63;8.88;;;9.00;88.60;;;;;;5021096;28;20045;-51
2020/12/08 10:18:32;;;;;;;21.13;9.13;;;8.90;88.80;;;;;;5033912;28;20522;-50
2020/12/08 10:20:57;;;;;;;26.70;9.52;;;9.00;88.50;;;;;;5033381;28;20030;-50
2020/12/08 10:23:23;;;;;;;21.92;10.93;;;9.00;88.70;;;;;;5033686;28;20105;-50
2020/12/08 10:25:49;;;;;;;20.35;9.80;;;9.00;88.60;;;;;;5027815;28;20471;-50
2020/12/08 10:28:14;;;;;;;22.05;9.20;;;9.00;88.50;;;;;;5014400;28;20022;-51
2020/12/08 10:30:40;;;;;;;18.38;8.60;;;9.00;89.50;;;;;;5026257;28;20108;-50
2020/12/08 10:33:06;;;;;;;20.95;9.55;;;9.00;88.80;;;;;;5037181;28;20060;-50
2020/12/08 10:35:31;;;;;;;28.80;12.30;;;9.10;89.30;;;;;;5037324;28;20405;-50
2020/12/08 10:37:57;;;;;;;25.20;9.63;;;9.00;88.30;;;;;;5037148;28;20097;-50
2020/12/08 10:40:23;;;;;;;27.50;11.20;;;9.00;88.60;;;;;;5036971;28;20378;-50
2020/12/08 10:42:49;;;;;;;18.73;9.88;;;9.10;88.70;;;;;;5037518;28;20068;-50
2020/12/08 10:45:14;;;;;;;25.92;10.68;;;9.00;88.70;;;;;;5021354;28;20033;-50
2020/12/08 10:47:40;;;;;;;20.23;8.15;;;9.00;88.60;;;;;;5017263;28;20092;-50
2020/12/08 10:50:06;;;;;;;27.00;10.98;;;9.00;88.60;;;;;;5017040;28;20113;-50
2020/12/08 10:52:31;;;;;;;26.25;11.38;;;9.00;88.60;;;;;;5016817;28;20037;-51
2020/12/08 10:54:57;;;;;;;19.58;7.90;;;9.00;88.70;;;;;;5030879;28;20040;-50
2020/12/08 10:57:23;;;;;;;25.50;8.95;;;9.00;88.70;;;;;;5036217;28;20030;-51
2020/12/08 10:59:49;;;;;;;22.85;8.98;;;9.00;88.70;;;;;;5017048;28;20117;-50
2020/12/08 11:02:14;;;;;;;28.77;9.60;;;9.00;88.70;;;;;;5017181;28;20112;-50
2020/12/08 11:04:40;;;;;;;20.77;9.23;;;9.00;88.60;;;;;;5016889;28;20332;-50
2020/12/08 11:07:06;;;;;;;25.17;9.52;;;9.10;88.50;;;;;;5024178;28;20386;-50
2020/12/08 11:09:32;;;;;;;23.92;9.82;;;9.10;88.60;;;;;;5030781;28;20103;-50
2020/12/08 11:11:57;;;;;;;19.42;8.95;;;9.10;88.70;;;;;;5021511;28;20060;-51
2020/12/08 11:14:23;;;;;;;25.38;10.68;;;9.10;88.60;;;;;;5036092;28;20025;-50
2020/12/08 11:16:49;;;;;;;27.15;9.35;;;9.10;88.90;;;;;;5036582;28;20358;-51
2020/12/08 11:19:15;;;;;;;26.05;10.05;;;9.10;88.60;;;;;;5036480;28;20036;-51
2020/12/08 11:21:41;;;;;;;23.33;9.77;;;9.10;88.70;;;;;;5034259;28;20076;-50
2020/12/08 11:24:08;;;;;;;22.02;9.88;;;9.10;88.70;;;;;;5016601;28;20452;-51
2020/12/08 11:26:34;;;;;;;27.90;11.25;;;9.00;89.60;;;;;;5029841;28;20057;-50
2020/12/08 11:29:01;;;;;;;24.55;9.68;;;9.00;89.00;;;;;;5036471;28;20113;-50
2020/12/08 11:31:27;;;;;;;33.35;11.10;;;9.00;88.60;;;;;;5036012;28;20021;-50
2020/12/08 11:33:52;;;;;;;27.33;10.50;;;9.10;89.00;;;;;;5036670;28;20044;-51
2020/12/08 11:36:18;;;;;;;29.15;9.82;;;9.10;88.80;;;;;;5036139;28;20076;-51
2020/12/08 11:38:44;;;;;;;27.42;10.65;;;9.10;89.10;;;;;;5036172;28;20064;-51
2020/12/08 11:41:10;;;;;;;25.05;10.80;;;9.10;88.90;;;;;;5017242;28;20146;-50
2020/12/08 11:43:36;;;;;;;25.08;10.23;;;9.10;88.90;;;;;;5020427;28;20021;-51
2020/12/08 11:46:03;;;;;;;23.55;8.93;;;9.10;89.10;;;;;;5036066;28;20446;-51
2020/12/08 11:48:29;;;;;;;20.60;9.52;;;9.10;88.90;;;;;;5036224;28;20447;-51
2020/12/08 11:50:55;;;;;;;25.67;10.00;;;9.10;89.10;;;;;;5033483;28;20044;-50
2020/12/08 11:53:21;;;;;;;26.48;11.77;;;9.00;88.80;;;;;;5035395;28;20358;-51
2020/12/08 11:55:48;;;;;;;23.60;10.30;;;9.10;88.90;;;;;;5035892;28;20165;-51
2020/12/08 11:58:14;;;;;;;21.75;11.15;;;9.10;89.10;;;;;;5035612;28;20147;-51
2020/12/08 12:00:40;;;;;;;22.00;9.88;;;9.10;89.20;;;;;;5035820;28;20030;-51
2020/12/08 12:03:06;;;;;;;29.00;10.75;;;9.10;88.80;;;;;;5034225;28;20021;-51
2020/12/08 12:05:32;;;;;;;20.83;9.05;;;9.10;89.00;;;;;;5015628;28;20464;-51
2020/12/08 12:07:57;;;;;;;28.55;9.80;;;9.10;88.90;;;;;;5020564;28;20033;-51
2020/12/08 12:10:23;;;;;;;26.88;9.95;;;9.10;88.80;;;;;;5035181;28;20029;-51
2020/12/08 12:12:49;;;;;;;27.23;10.60;;;9.10;88.80;;;;;;5035567;28;20033;-51
2020/12/08 12:15:14;;;;;;;29.48;10.05;;;9.10;88.90;;;;;;5035524;28;20076;-50
2020/12/08 12:17:40;;;;;;;27.05;10.65;;;9.10;88.90;;;;;;5028123;28;20068;-51
2020/12/08 12:20:07;;;;;;;23.80;11.00;;;9.10;88.80;;;;;;5015331;28;20163;-50
2020/12/08 12:22:34;;;;;;;25.60;10.73;;;9.10;89.00;;;;;;5015710;28;20029;-51
2020/12/08 12:25:00;;;;;;;29.98;11.48;;;9.20;88.80;;;;;;5015559;28;20041;-51
2020/12/08 12:27:26;;;;;;;28.70;10.07;;;9.10;89.10;;;;;;5015559;28;20356;-51
2020/12/08 12:29:52;;;;;;;24.63;10.13;;;9.10;89.10;;;;;;5015490;28;20036;-51
2020/12/08 12:32:17;;;;;;;25.73;9.32;;;9.10;89.00;;;;;;5015485;28;20080;-51
2020/12/08 12:34:43;;;;;;;29.42;11.93;;;9.10;89.00;;;;;;5015185;28;20030;-51
2020/12/08 12:37:09;;;;;;;25.33;10.98;;;9.10;89.00;;;;;;5014413;28;20379;-51
2020/12/08 12:39:34;;;;;;;22.13;10.50;;;9.10;88.90;;;;;;5015796;28;20071;-51
2020/12/08 12:42:01;;;;;;;26.00;10.75;;;9.10;89.30;;;;;;5014937;28;20112;-51
2020/12/08 12:44:27;;;;;;;24.42;10.02;;;9.10;89.20;;;;;;5015492;28;20036;-51
2020/12/08 12:46:54;;;;;;;27.63;10.52;;;9.10;89.10;;;;;;5015148;28;20026;-51
2020/12/08 12:49:20;;;;;;;25.23;9.82;;;9.10;89.10;;;;;;5014924;28;20026;-51
2020/12/08 12:51:45;;;;;;;21.95;9.80;;;9.10;89.10;;;;;;5014956;28;20457;-51
2020/12/08 12:54:12;;;;;;;24.17;9.88;;;9.10;89.10;;;;;;5014597;28;20022;-50
2020/12/08 12:56:38;;;;;;;19.08;9.18;;;9.10;89.30;;;;;;5015025;28;20037;-51
2020/12/08 12:59:03;;;;;;;26.90;10.02;;;9.10;89.10;;;;;;5023180;28;20544;-51
2020/12/08 13:01:29;;;;;;;28.88;11.40;;;9.10;89.20;;;;;;5034058;28;20088;-51
2020/12/08 13:03:55;;;;;;;25.00;10.77;;;9.10;89.00;;;;;;5034170;28;20017;-50
2020/12/08 13:06:21;;;;;;;28.83;12.85;;;9.10;89.80;;;;;;5033418;28;20029;-50
2020/12/08 13:08:47;;;;;;;24.40;10.63;;;9.10;89.30;;;;;;5014880;28;20351;-50
2020/12/08 13:11:14;;;;;;;23.08;10.30;;;9.10;88.90;;;;;;5023526;28;20041;-50
2020/12/08 13:13:41;;;;;;;27.58;10.77;;;9.10;89.20;;;;;;5034569;28;20546;-50
2020/12/08 13:16:11;;;;;;;21.23;9.13;;;9.10;89.20;;;;;;5034041;28;20059;-51
2020/12/08 13:18:37;;;;;;;23.33;10.70;;;9.10;89.50;;;;;;5034387;28;20033;-51
2020/12/08 13:21:04;;;;;;;26.15;10.27;;;9.00;89.10;;;;;;5034151;28;20030;-51
2020/12/08 13:23:31;;;;;;;23.90;10.07;;;9.10;89.30;;;;;;5034656;28;20057;-50
2020/12/08 13:25:57;;;;;;;23.67;9.35;;;9.10;89.60;;;;;;5019636;28;20133;-51
2020/12/08 13:28:23;;;;;;;23.73;10.13;;;9.10;89.40;;;;;;5014905;28;20026;-50
2020/12/08 13:30:49;;;;;;;25.02;9.55;;;9.10;89.20;;;;;;5014153;28;20065;-51
2020/12/08 13:33:15;;;;;;;25.13;9.85;;;9.10;89.60;;;;;;5014322;28;20037;-51
2020/12/08 13:35:41;;;;;;;19.55;9.57;;;9.10;89.40;;;;;;5026725;28;20037;-51
2020/12/08 13:38:07;;;;;;;24.02;8.82;;;9.10;89.30;;;;;;5034479;28;20405;-51
2020/12/08 13:40:33;;;;;;;22.17;9.25;;;9.10;89.50;;;;;;5014599;28;20112;-51
2020/12/08 13:42:59;;;;;;;22.58;9.35;;;9.10;89.20;;;;;;5014668;28;20482;-51
2020/12/08 13:45:25;;;;;;;26.08;9.82;;;9.10;89.40;;;;;;5014946;28;20030;-51
2020/12/08 13:47:51;;;;;;;24.80;9.98;;;9.10;89.50;;;;;;5014274;28;20104;-50
2020/12/08 13:50:17;;;;;;;23.23;10.65;;;9.10;89.30;;;;;;5014243;28;20032;-51
2020/12/08 13:52:42;;;;;;;20.75;9.02;;;9.10;89.20;;;;;;5014729;28;20041;-51
2020/12/08 13:55:08;;;;;;;22.08;9.82;;;9.00;89.20;;;;;;5014641;28;20080;-50
2020/12/08 13:57:34;;;;;;;24.75;8.70;;;9.00;89.40;;;;;;5014157;28;20423;-51
2020/12/08 14:00:00;;;;;;;21.30;9.27;;;9.10;89.50;;;;;;5020622;28;20087;-51
2020/12/08 14:02:25;;;;;;;22.45;9.20;;;9.10;89.30;;;;;;5033946;28;20457;-51
2020/12/08 14:04:51;;;;;;;27.70;9.13;;;9.00;89.40;;;;;;5035208;28;20139;-51
2020/12/08 14:07:20;;;;;;;28.65;9.95;;;9.00;89.50;;;;;;5034657;28;20511;-51
2020/12/08 14:09:46;;;;;;;30.63;9.73;;;9.10;89.20;;;;;;5037942;28;20404;-50
2020/12/08 14:12:12;;;;;;;24.50;9.25;;;9.00;89.30;;;;;;5037518;28;20021;-50
2020/12/08 14:14:38;;;;;;;19.33;8.45;;;9.00;89.50;;;;;;5037573;28;20469;-50
2020/12/08 14:17:03;;;;;;;20.25;9.00;;;9.00;89.40;;;;;;5032432;28;20092;-51
2020/12/08 14:19:29;;;;;;;22.85;8.85;;;9.00;89.50;;;;;;5018160;28;20363;-50
2020/12/08 14:21:55;;;;;;;20.63;8.35;;;9.00;89.70;;;;;;5017623;28;20076;-50
2020/12/08 14:24:25;;;;;;;28.38;9.50;;;9.00;89.40;;;;;;5035408;28;20108;-50
2020/12/08 14:26:51;;;;;;;23.75;9.13;;;9.00;89.50;;;;;;5037636;28;20107;-50
2020/12/08 14:29:17;;;;;;;21.35;8.55;;;9.00;89.70;;;;;;5037337;28;20474;-50
2020/12/08 14:31:43;;;;;;;22.95;9.90;;;9.00;89.60;;;;;;5025152;28;20037;-50
2020/12/08 14:34:09;;;;;;;20.52;9.25;;;9.00;89.60;;;;;;5017766;28;20057;-50
2020/12/08 14:36:34;;;;;;;25.08;10.15;;;9.00;89.70;;;;;;5030931;28;20439;-50
2020/12/08 14:39:01;;;;;;;22.20;9.75;;;9.00;89.30;;;;;;5037228;28;20092;-50
2020/12/08 14:41:27;;;;;;;24.50;10.38;;;9.00;90.10;;;;;;5027152;28;20092;-50
2020/12/08 14:43:53;;;;;;;21.65;8.88;;;9.00;89.90;;;;;;5017592;28;20026;-50
2020/12/08 14:46:19;;;;;;;28.25;10.13;;;9.00;89.60;;;;;;5017215;28;20040;-50
2020/12/08 14:48:45;;;;;;;21.13;9.07;;;9.00;89.70;;;;;;5017563;28;20032;-50
2020/12/08 14:51:11;;;;;;;28.63;10.65;;;9.00;89.50;;;;;;5023788;28;20534;-50
2020/12/08 14:53:38;;;;;;;23.23;8.90;;;9.00;89.70;;;;;;5036887;28;20556;-50
2020/12/08 14:56:04;;;;;;;20.75;8.25;;;9.00;89.70;;;;;;5023349;28;20050;-50
2020/12/08 14:58:30;;;;;;;18.52;8.13;;;9.00;89.70;;;;;;5016903;28;20367;-50
2020/12/08 15:00:56;;;;;;;27.15;9.55;;;9.00;89.40;;;;;;5017070;28;20030;-50
2020/12/08 15:03:22;;;;;;;26.88;9.38;;;9.00;89.50;;;;;;5017116;28;20033;-50
2020/12/08 15:05:48;;;;;;;23.40;9.23;;;9.00;89.90;;;;;;5028502;28;20033;-50
2020/12/08 15:08:14;;;;;;;29.65;10.35;;;9.00;89.50;;;;;;5019017;28;20033;-50
2020/12/08 15:10:40;;;;;;;23.73;9.43;;;9.00;89.70;;;;;;5016595;28;20455;-50
2020/12/08 15:13:05;;;;;;;25.90;11.38;;;9.00;89.70;;;;;;5016544;28;20034;-50
2020/12/08 15:15:31;;;;;;;28.50;11.95;;;9.00;89.60;;;;;;5016648;28;20113;-50
2020/12/08 15:17:57;;;;;;;21.70;9.00;;;9.00;89.80;;;;;;5016787;28;20026;-50
2020/12/08 15:20:23;;;;;;;21.00;10.20;;;9.00;89.60;;;;;;5016595;28;20101;-50